createdAt,value
2022-12-15T00:02:10.137Z,22.35
2022-12-15T00:04:55.225Z,20.40
2022-12-15T00:07:40.264Z,22.00
2022-12-15T00:10:25.540Z,20.73
2022-12-15T00:13:10.706Z,21.67
2022-12-15T00:15:55.586Z,20.50
2022-12-15T00:18:40.533Z,21.08
2022-12-15T00:21:25.210Z,21.80
2022-12-15T00:24:10.012Z,20.25
2022-12-15T00:26:54.754Z,20.55
2022-12-15T00:29:39.551Z,20.88
2022-12-15T00:32:24.747Z,22.75
2022-12-15T00:35:09.383Z,20.48
2022-12-15T00:37:54.212Z,21.88
2022-12-15T00:40:20.554Z,23.27
2022-12-15T00:42:49.509Z,22.90
2022-12-15T00:45:16.233Z,23.45
2022-12-15T00:47:42.779Z,24.48
2022-12-15T00:50:27.883Z,23.10
2022-12-15T00:53:13.067Z,24.92
2022-12-15T00:55:57.975Z,21.92
2022-12-15T00:58:43.073Z,22.00
2022-12-15T01:01:28.905Z,24.10
2022-12-15T01:04:14.090Z,23.63
2022-12-15T01:06:58.996Z,23.27
2022-12-15T01:09:44.203Z,23.92
2022-12-15T01:12:29.378Z,26.80
2022-12-15T01:15:14.147Z,24.10
2022-12-15T01:17:59.216Z,24.55
2022-12-15T01:20:25.652Z,23.13
2022-12-15T01:22:54.830Z,23.83
2022-12-15T01:25:24.288Z,25.02
2022-12-15T01:27:51.473Z,24.65
2022-12-15T01:30:21.698Z,25.63
2022-12-15T01:32:48.827Z,26.13
2022-12-15T01:35:15.799Z,26.25
2022-12-15T01:37:42.233Z,28.02
2022-12-15T01:40:34.275Z,29.25
2022-12-15T01:43:00.959Z,25.42
2022-12-15T01:45:27.267Z,24.30
2022-12-15T01:47:57.530Z,23.38
2022-12-15T01:50:26.150Z,22.00
2022-12-15T01:52:54.055Z,20.55
2022-12-15T01:55:25.571Z,20.48
2022-12-15T01:57:56.733Z,22.02
2022-12-15T02:00:23.296Z,20.05
2022-12-15T02:02:50.966Z,19.95
2022-12-15T02:05:18.023Z,20.00
2022-12-15T02:07:44.347Z,20.40
2022-12-15T02:10:11.983Z,20.52
2022-12-15T02:13:01.394Z,19.40
2022-12-15T02:15:38.288Z,19.92
2022-12-15T02:18:49.611Z,20.10
2022-12-15T02:21:24.578Z,19.05
2022-12-15T02:23:54.061Z,20.90
2022-12-15T02:26:58.192Z,19.88
2022-12-15T02:29:35.317Z,19.73
2022-12-15T02:32:28.536Z,20.52
2022-12-15T02:35:04.622Z,21.58
2022-12-15T02:37:36.924Z,22.15
2022-12-15T02:40:05.897Z,21.83
2022-12-15T02:42:35.768Z,20.98
2022-12-15T02:45:07.358Z,21.77
2022-12-15T02:47:38.871Z,22.63
2022-12-15T02:50:23.751Z,22.08
2022-12-15T02:53:23.629Z,20.98
2022-12-15T02:56:11.937Z,21.35
2022-12-15T02:58:56.102Z,21.67
2022-12-15T03:01:26.660Z,20.70
2022-12-15T03:03:55.490Z,20.88
2022-12-15T03:06:24.405Z,19.95
2022-12-15T03:08:50.923Z,20.23
2022-12-15T03:11:17.264Z,20.67
2022-12-15T03:13:43.670Z,20.77
2022-12-15T03:16:10.099Z,20.45
2022-12-15T03:18:36.742Z,20.75
2022-12-15T03:21:03.758Z,21.00
2022-12-15T03:23:30.511Z,20.92
2022-12-15T03:25:57.156Z,20.27
2022-12-15T03:28:23.492Z,20.15
2022-12-15T03:30:50.409Z,21.63
2022-12-15T03:33:17.859Z,20.15
2022-12-15T03:35:44.359Z,19.83
2022-12-15T03:38:10.712Z,20.60
2022-12-15T03:40:37.213Z,21.70
2022-12-15T03:43:03.564Z,19.67
2022-12-15T03:45:30.116Z,20.80
2022-12-15T03:47:57.214Z,21.35
2022-12-15T03:50:26.213Z,22.63
2022-12-15T03:52:57.856Z,22.08
2022-12-15T03:55:24.376Z,23.38
2022-12-15T03:57:51.338Z,23.50
2022-12-15T04:00:19.766Z,24.35
2022-12-15T04:02:46.908Z,22.23
2022-12-15T04:05:19.742Z,23.25
2022-12-15T04:07:46.201Z,22.55
2022-12-15T04:10:13.237Z,23.30
2022-12-15T04:12:43.887Z,22.58
2022-12-15T04:15:11.675Z,20.95
2022-12-15T04:17:38.522Z,23.80
2022-12-15T04:20:10.326Z,22.88
2022-12-15T04:22:41.732Z,23.70
2022-12-15T04:25:32.507Z,23.35
2022-12-15T04:28:18.097Z,21.63
2022-12-15T04:31:14.320Z,21.67
2022-12-15T04:34:03.743Z,18.60
2022-12-15T04:36:49.666Z,21.10
2022-12-15T04:39:34.903Z,21.15
2022-12-15T04:42:20.586Z,20.98
2022-12-15T04:45:07.657Z,20.35
2022-12-15T04:47:52.628Z,21.03
2022-12-15T04:50:37.649Z,20.08
2022-12-15T04:53:34.998Z,21.23
2022-12-15T04:56:21.134Z,20.85
2022-12-15T04:59:06.731Z,21.08
2022-12-15T05:01:53.200Z,21.02
2022-12-15T05:04:38.178Z,20.60
2022-12-15T05:07:23.290Z,20.88
2022-12-15T05:10:14.363Z,23.13
2022-12-15T05:13:02.705Z,22.85
2022-12-15T05:15:48.760Z,22.98
2022-12-15T05:18:33.899Z,23.88
2022-12-15T05:21:18.683Z,24.25
2022-12-15T05:24:03.693Z,23.85
2022-12-15T05:26:52.624Z,25.10
2022-12-15T05:29:38.346Z,25.48
2022-12-15T05:32:04.942Z,23.63
2022-12-15T05:34:34.920Z,22.92
2022-12-15T05:37:03.095Z,21.65
2022-12-15T05:39:29.802Z,21.75
2022-12-15T05:41:56.923Z,21.50
2022-12-15T05:44:24.942Z,22.02
2022-12-15T05:46:51.393Z,20.85
2022-12-15T05:49:19.195Z,20.02
2022-12-15T05:51:47.544Z,23.40
2022-12-15T05:54:16.323Z,26.20
2022-12-15T05:56:43.033Z,23.73
2022-12-15T05:59:09.604Z,19.88
2022-12-15T06:01:36.914Z,21.40
2022-12-15T06:04:04.184Z,22.23
2022-12-15T06:06:30.618Z,20.65
2022-12-15T06:08:57.238Z,22.15
2022-12-15T06:11:23.744Z,20.17
2022-12-15T06:13:50.297Z,21.92
2022-12-15T06:16:21.404Z,21.80
2022-12-15T06:18:51.205Z,22.38
2022-12-15T06:21:19.945Z,22.77
2022-12-15T06:23:46.490Z,19.63
2022-12-15T06:26:20.025Z,19.13
2022-12-15T06:28:47.343Z,21.38
2022-12-15T06:31:14.499Z,22.13
2022-12-15T06:33:41.510Z,21.05
2022-12-15T06:36:10.998Z,19.15
2022-12-15T06:38:37.654Z,21.65
2022-12-15T06:41:05.932Z,19.02
2022-12-15T06:46:02.247Z,17.20
2022-12-15T06:48:28.719Z,16.02
2022-12-15T06:50:56.270Z,21.30
2022-12-15T06:53:24.290Z,17.95
2022-12-15T06:55:51.088Z,18.48
2022-12-15T06:58:18.440Z,21.40
2022-12-15T07:00:46.450Z,19.20
2022-12-15T07:03:16.206Z,19.85
2022-12-15T07:05:44.244Z,20.08
2022-12-15T07:08:11.992Z,20.67
2022-12-15T07:10:40.297Z,20.77
2022-12-15T07:15:36.901Z,19.77
2022-12-15T07:20:31.921Z,20.05
2022-12-15T07:22:58.352Z,19.10
2022-12-15T07:25:24.755Z,20.45
2022-12-15T07:27:51.100Z,21.80
2022-12-15T07:30:17.837Z,21.75
2022-12-15T07:32:50.249Z,22.20
2022-12-15T07:35:17.858Z,22.55
2022-12-15T07:37:44.420Z,21.43
2022-12-15T07:40:11.153Z,23.00
2022-12-15T07:42:37.595Z,22.25
2022-12-15T07:45:05.362Z,20.73
2022-12-15T07:47:32.223Z,21.70
2022-12-15T07:49:58.716Z,22.83
2022-12-15T07:52:25.207Z,22.10
2022-12-15T07:54:51.746Z,21.33
2022-12-15T07:57:18.940Z,24.50
2022-12-15T07:59:45.392Z,22.85
2022-12-15T08:02:12.934Z,24.25
2022-12-15T08:04:40.453Z,21.48
2022-12-15T08:07:07.566Z,22.30
2022-12-15T08:09:34.142Z,21.58
2022-12-15T08:12:00.674Z,22.05
2022-12-15T08:14:28.836Z,23.92
2022-12-15T08:16:55.529Z,23.40
2022-12-15T08:19:26.735Z,23.65
2022-12-15T08:21:53.107Z,24.80
2022-12-15T08:24:19.766Z,22.58
2022-12-15T08:26:50.414Z,22.45
2022-12-15T08:29:49.372Z,22.85
2022-12-15T08:32:04.956Z,23.70
2022-12-15T08:34:31.504Z,23.13
2022-12-15T08:36:58.088Z,23.20
2022-12-15T08:39:24.510Z,22.80
2022-12-15T08:41:51.036Z,22.63
2022-12-15T08:44:17.850Z,22.55
2022-12-15T08:46:44.786Z,23.42
2022-12-15T08:49:14.191Z,24.38
2022-12-15T08:51:43.145Z,21.33
2022-12-15T08:54:09.487Z,22.75
2022-12-15T08:56:36.327Z,20.58
2022-12-15T08:59:03.242Z,22.48
2022-12-15T09:01:32.644Z,20.92
2022-12-15T09:03:59.736Z,22.70
2022-12-15T09:06:29.056Z,21.67
2022-12-15T09:08:57.045Z,23.58
2022-12-15T09:11:24.689Z,23.15
2022-12-15T09:13:51.469Z,22.08
2022-12-15T09:16:19.157Z,23.75
2022-12-15T09:18:48.353Z,31.48
2022-12-15T09:21:15.197Z,25.80
2022-12-15T09:23:42.774Z,24.42
2022-12-15T09:26:11.929Z,24.02
2022-12-15T09:28:39.195Z,24.15
2022-12-15T09:31:11.225Z,23.08
2022-12-15T09:33:38.695Z,23.73
2022-12-15T09:36:06.509Z,23.92
2022-12-15T09:38:39.208Z,24.38
2022-12-15T09:41:20.212Z,22.23
2022-12-15T09:43:52.340Z,24.77
2022-12-15T09:46:42.973Z,23.48
2022-12-15T09:49:36.652Z,27.23
2022-12-15T09:52:19.277Z,22.23
2022-12-15T09:54:46.650Z,23.17
2022-12-15T09:57:19.113Z,22.60
2022-12-15T10:00:05.307Z,21.77
2022-12-15T10:02:44.151Z,22.23
2022-12-15T10:06:14.845Z,23.52
2022-12-15T10:08:42.804Z,21.13
2022-12-15T10:11:24.133Z,21.70
2022-12-15T10:14:06.508Z,22.40
2022-12-15T10:16:40.812Z,22.20
2022-12-15T10:19:14.078Z,21.08
2022-12-15T10:21:40.839Z,22.02
2022-12-15T10:24:31.431Z,22.20
2022-12-15T10:27:22.481Z,22.40
2022-12-15T10:30:02.192Z,21.92
2022-12-15T10:32:31.606Z,22.08
2022-12-15T10:34:58.216Z,22.85
2022-12-15T10:37:24.740Z,20.67
2022-12-15T10:39:52.120Z,21.83
2022-12-15T10:42:23.610Z,22.23
2022-12-15T10:44:53.122Z,22.70
2022-12-15T10:47:31.420Z,23.27
2022-12-15T10:50:38.822Z,21.55
2022-12-15T10:53:09.560Z,21.67
2022-12-15T10:55:37.612Z,21.85
2022-12-15T10:58:20.687Z,21.27
2022-12-15T11:00:50.985Z,21.48
2022-12-15T11:03:26.725Z,23.00
2022-12-15T11:05:55.789Z,21.58
2022-12-15T11:08:25.533Z,22.50
2022-12-15T11:11:16.178Z,20.30
2022-12-15T11:13:43.811Z,21.27
2022-12-15T11:16:18.533Z,22.00
2022-12-15T11:18:48.834Z,21.35
2022-12-15T11:21:35.015Z,23.42
2022-12-15T11:24:04.795Z,23.38
2022-12-15T11:26:56.796Z,23.17
2022-12-15T11:29:29.960Z,23.35
2022-12-15T11:32:01.438Z,22.20
2022-12-15T11:34:38.490Z,20.40
2022-12-15T11:37:42.907Z,22.25
2022-12-15T11:40:36.569Z,22.92
2022-12-15T11:43:27.797Z,20.92
2022-12-15T11:46:00.767Z,22.48
2022-12-15T11:48:48.954Z,21.63
2022-12-15T11:54:07.976Z,20.00
2022-12-15T11:56:50.439Z,21.05
2022-12-15T11:59:39.034Z,21.58
2022-12-15T12:02:20.009Z,21.45
2022-12-15T12:04:56.008Z,22.52
2022-12-15T12:07:49.639Z,21.10
2022-12-15T12:10:29.905Z,21.67
2022-12-15T12:13:21.405Z,21.50
2022-12-15T12:16:24.256Z,20.88
2022-12-15T12:18:57.489Z,19.40
2022-12-15T12:21:35.890Z,19.95
2022-12-15T12:24:21.328Z,20.85
2022-12-15T12:27:00.695Z,21.63
2022-12-15T12:29:37.872Z,21.85
2022-12-15T12:32:13.053Z,21.20
2022-12-15T12:35:31.405Z,21.38
2022-12-15T12:37:51.151Z,23.63
2022-12-15T12:40:31.364Z,20.38
2022-12-15T12:42:59.205Z,20.30
2022-12-15T12:45:50.208Z,22.02
2022-12-15T12:48:25.287Z,22.38
2022-12-15T12:51:10.089Z,22.38
2022-12-15T12:53:36.809Z,22.50
2022-12-15T12:56:03.759Z,21.58
2022-12-15T12:58:45.263Z,23.13
2022-12-15T13:01:30.999Z,22.02
2022-12-15T13:04:12.040Z,21.75
2022-12-15T13:06:38.368Z,22.20
2022-12-15T13:09:16.985Z,22.08
2022-12-15T13:11:50.969Z,22.55
2022-12-15T13:14:31.332Z,23.30
2022-12-15T13:20:01.222Z,21.85
2022-12-15T13:22:38.753Z,25.52
2022-12-15T13:25:35.686Z,23.65
2022-12-15T13:28:17.652Z,23.95
2022-12-15T13:31:21.758Z,22.77
2022-12-15T13:33:51.247Z,23.85
2022-12-15T13:36:39.172Z,23.35
2022-12-15T13:39:17.616Z,22.08
2022-12-15T13:44:54.796Z,21.23
2022-12-15T13:47:25.736Z,22.63
2022-12-15T13:50:02.111Z,24.70
2022-12-15T13:53:16.510Z,22.83
2022-12-15T13:55:28.087Z,22.40
2022-12-15T13:58:01.599Z,23.05
2022-12-15T14:00:28.122Z,23.30
2022-12-15T14:03:06.844Z,20.48
2022-12-15T14:05:33.850Z,21.83
2022-12-15T14:08:03.001Z,23.42
2022-12-15T14:10:41.705Z,22.02
2022-12-15T14:13:17.465Z,23.15
2022-12-15T14:16:15.682Z,22.40
2022-12-15T14:18:42.971Z,22.33
2022-12-15T14:21:27.043Z,22.75
2022-12-15T14:26:41.401Z,21.70
2022-12-15T14:29:09.800Z,21.83
2022-12-15T14:31:37.382Z,23.77
2022-12-15T14:34:08.961Z,22.95
2022-12-15T14:36:38.197Z,24.17
2022-12-15T14:39:08.487Z,22.45
2022-12-15T14:41:40.516Z,24.33
2022-12-15T14:44:31.505Z,24.83
2022-12-15T14:47:08.444Z,24.37
2022-12-15T14:49:42.563Z,24.67
2022-12-15T14:52:25.782Z,22.40
2022-12-15T14:54:57.304Z,24.60
2022-12-15T14:57:25.910Z,23.92
2022-12-15T14:59:53.577Z,25.05
2022-12-15T15:02:30.365Z,26.00
2022-12-15T15:05:07.284Z,25.30
2022-12-15T15:07:35.274Z,23.02
2022-12-15T15:10:04.774Z,23.38
2022-12-15T15:12:43.641Z,24.80
2022-12-15T15:15:19.018Z,25.38
2022-12-15T15:17:51.001Z,24.75
2022-12-15T15:20:18.836Z,24.95
2022-12-15T15:22:46.941Z,24.08
2022-12-15T15:25:39.883Z,23.85
2022-12-15T15:28:16.062Z,22.33
2022-12-15T15:30:48.550Z,23.60
2022-12-15T15:33:16.470Z,25.05
2022-12-15T15:35:44.465Z,24.73
2022-12-15T15:38:19.947Z,23.33
2022-12-15T15:40:55.051Z,25.13
2022-12-15T15:43:22.395Z,24.73
2022-12-15T15:45:50.727Z,25.23
2022-12-15T15:50:55.853Z,21.17
2022-12-15T15:53:24.834Z,22.77
2022-12-15T15:55:55.115Z,24.60
2022-12-15T15:58:21.694Z,25.15
2022-12-15T16:00:48.017Z,25.70
2022-12-15T16:03:15.009Z,24.85
2022-12-15T16:05:42.591Z,23.13
2022-12-15T16:08:15.848Z,25.10
2022-12-15T16:10:45.900Z,25.48
2022-12-15T16:13:12.627Z,25.20
2022-12-15T16:15:39.045Z,23.98
2022-12-15T16:18:05.514Z,25.35
2022-12-15T16:20:33.541Z,26.80
2022-12-15T16:23:05.379Z,24.55
2022-12-15T16:25:46.638Z,24.80
2022-12-15T16:28:17.829Z,26.15
2022-12-15T16:30:45.097Z,25.10
2022-12-15T16:33:13.099Z,26.40
2022-12-15T16:35:41.883Z,28.58
2022-12-15T16:38:21.242Z,27.30
2022-12-15T16:40:47.687Z,27.73
2022-12-15T16:43:19.854Z,28.00
2022-12-15T16:45:48.956Z,29.98
2022-12-15T16:48:16.232Z,32.15
2022-12-15T16:50:46.859Z,31.50
2022-12-15T16:53:19.135Z,29.35
2022-12-15T16:55:47.966Z,23.38
2022-12-15T16:58:17.030Z,28.40
2022-12-15T17:00:44.682Z,27.77
2022-12-15T17:03:18.837Z,36.42
2022-12-15T17:05:49.454Z,32.25
2022-12-15T17:08:20.473Z,37.38
2022-12-15T17:10:48.224Z,32.53
2022-12-15T17:13:45.660Z,35.60
2022-12-15T17:16:14.469Z,34.90
2022-12-15T17:18:42.736Z,37.22
2022-12-15T17:21:15.852Z,31.45
2022-12-15T17:23:45.526Z,28.80
2022-12-15T17:26:27.676Z,32.70
2022-12-15T17:28:58.608Z,33.35
2022-12-15T17:31:30.260Z,34.85
2022-12-15T17:34:02.510Z,34.33
2022-12-15T17:36:29.333Z,35.33
2022-12-15T17:39:01.160Z,35.95
2022-12-15T17:41:58.124Z,36.03
2022-12-15T17:44:32.931Z,35.23
2022-12-15T17:47:01.797Z,34.58
2022-12-15T17:49:34.712Z,33.13
2022-12-15T17:52:04.835Z,33.03
2022-12-15T17:54:31.292Z,33.58
2022-12-15T17:56:57.657Z,33.28
2022-12-15T17:59:24.014Z,32.58
2022-12-15T18:01:50.436Z,32.53
2022-12-15T18:04:17.916Z,33.47
2022-12-15T18:06:44.798Z,31.02
2022-12-15T18:09:17.275Z,30.38
2022-12-15T18:11:46.541Z,34.17
2022-12-15T18:14:18.513Z,34.53
2022-12-15T18:16:45.582Z,36.17
2022-12-15T18:19:15.645Z,34.17
2022-12-15T18:21:44.218Z,35.72
2022-12-15T18:24:15.523Z,33.83
2022-12-15T18:26:42.685Z,34.10
2022-12-15T18:29:19.931Z,32.75
2022-12-15T18:31:50.651Z,36.42
2022-12-15T18:34:21.093Z,38.50
2022-12-15T18:36:47.537Z,36.95
2022-12-15T18:39:19.815Z,37.13
2022-12-15T18:41:46.895Z,36.13
2022-12-15T18:44:25.211Z,37.72
2022-12-15T18:46:53.058Z,35.53
2022-12-15T18:49:22.388Z,33.92
2022-12-15T18:51:49.207Z,35.72
2022-12-15T18:54:23.908Z,36.00
2022-12-15T18:56:51.738Z,38.08
2022-12-15T18:59:19.030Z,38.67
2022-12-15T19:01:47.623Z,43.13
2022-12-15T19:04:14.805Z,41.92
2022-12-15T19:06:41.663Z,39.78
2022-12-15T19:09:15.632Z,42.72
2022-12-15T19:12:02.168Z,42.80
2022-12-15T19:14:40.761Z,39.58
2022-12-15T19:17:29.140Z,37.50
2022-12-15T19:20:18.415Z,43.70
2022-12-15T19:22:47.039Z,44.30
2022-12-15T19:25:25.551Z,45.67
2022-12-15T19:27:59.299Z,45.10
2022-12-15T19:30:29.238Z,44.05
2022-12-15T19:32:56.465Z,43.10
2022-12-15T19:35:22.982Z,43.70
2022-12-15T19:37:50.024Z,44.47
2022-12-15T19:40:23.996Z,45.42
2022-12-15T19:42:53.064Z,47.95
2022-12-15T19:45:27.242Z,49.25
2022-12-15T19:47:54.398Z,46.30
2022-12-15T19:50:24.169Z,47.75
2022-12-15T19:52:54.741Z,45.35
2022-12-15T19:55:25.915Z,49.92
2022-12-15T19:57:52.505Z,51.63
2022-12-15T20:00:22.225Z,51.95
2022-12-15T20:02:51.217Z,54.17
2022-12-15T20:05:19.005Z,54.22
2022-12-15T20:07:46.389Z,43.50
2022-12-15T20:10:31.225Z,59.93
2022-12-15T20:12:58.785Z,66.55
2022-12-15T20:15:28.559Z,66.22
2022-12-15T20:17:56.544Z,61.28
2022-12-15T20:20:24.648Z,74.55
2022-12-15T20:22:54.608Z,79.47
2022-12-15T20:25:26.753Z,74.60
2022-12-15T20:27:53.280Z,70.95
2022-12-15T20:30:26.765Z,70.55
2022-12-15T20:32:53.252Z,66.35
2022-12-15T20:35:21.733Z,73.15
2022-12-15T20:37:48.773Z,72.72
2022-12-15T20:40:18.502Z,73.35
2022-12-15T20:42:44.931Z,73.07
2022-12-15T20:45:19.377Z,70.85
2022-12-15T20:47:47.712Z,70.00
2022-12-15T20:53:25.314Z,58.17
2022-12-15T20:55:53.650Z,64.15
2022-12-15T21:00:48.633Z,61.22
2022-12-15T21:03:31.929Z,63.40
2022-12-15T21:06:00.345Z,65.00
2022-12-15T21:08:29.675Z,64.40
2022-12-15T21:11:01.847Z,61.30
2022-12-15T21:13:31.886Z,67.07
2022-12-15T21:15:58.646Z,63.03
2022-12-15T21:21:21.385Z,63.22
2022-12-15T21:23:48.558Z,56.90
2022-12-15T21:26:19.380Z,61.35
2022-12-15T21:28:47.868Z,60.50
2022-12-15T21:31:15.922Z,61.40
2022-12-15T21:33:42.838Z,62.80
2022-12-15T21:36:18.010Z,64.70
2022-12-15T21:38:47.719Z,65.30
2022-12-15T21:41:20.853Z,64.85
2022-12-15T21:43:47.758Z,64.53
2022-12-15T21:46:27.897Z,67.53
2022-12-15T21:49:14.113Z,58.38
2022-12-15T21:51:46.915Z,63.75
2022-12-15T21:54:27.362Z,63.72
2022-12-15T21:56:56.943Z,65.30
2022-12-15T21:59:26.900Z,62.70
2022-12-15T22:01:55.107Z,62.00
2022-12-15T22:06:53.616Z,65.30
2022-12-15T22:09:21.294Z,59.53
2022-12-15T22:11:50.987Z,64.25
2022-12-15T22:14:33.222Z,67.22
2022-12-15T22:17:01.589Z,61.47
2022-12-15T22:21:55.694Z,60.47
2022-12-15T22:24:22.292Z,57.70
2022-12-15T22:26:50.939Z,57.28
2022-12-15T22:29:20.543Z,59.17
2022-12-15T22:31:53.332Z,55.03
2022-12-15T22:34:24.262Z,59.17
2022-12-15T22:36:51.931Z,58.60
2022-12-15T22:39:19.001Z,56.13
2022-12-15T22:41:48.221Z,54.65
2022-12-15T22:44:27.056Z,53.00
2022-12-15T22:46:56.121Z,47.42
2022-12-15T22:49:28.531Z,49.78
2022-12-15T22:51:55.154Z,47.35
2022-12-15T22:54:24.642Z,49.42
2022-12-15T22:56:55.660Z,48.17
2022-12-15T23:00:03.133Z,46.03
2022-12-15T23:02:35.235Z,44.00
2022-12-15T23:05:02.003Z,43.08
2022-12-15T23:07:28.648Z,43.17
2022-12-15T23:10:14.963Z,41.95
2022-12-15T23:12:41.428Z,40.20
2022-12-15T23:15:27.058Z,40.00
2022-12-15T23:17:53.560Z,40.78
2022-12-15T23:20:21.425Z,40.25
2022-12-15T23:22:47.776Z,40.10
2022-12-15T23:25:14.189Z,39.45
2022-12-15T23:27:40.614Z,42.58
2022-12-15T23:30:08.278Z,42.67
2022-12-15T23:32:34.600Z,44.80
2022-12-15T23:35:00.967Z,44.00
2022-12-15T23:37:27.379Z,42.85
2022-12-15T23:39:53.729Z,45.70
2022-12-15T23:42:20.200Z,43.17
2022-12-15T23:44:48.076Z,48.78
2022-12-15T23:47:14.875Z,44.55
2022-12-15T23:49:41.283Z,40.75
2022-12-15T23:52:08.421Z,42.20
2022-12-15T23:54:34.794Z,38.22
2022-12-15T23:57:02.038Z,42.08
2022-12-15T23:59:28.413Z,44.05
